CheckWX is a tool to help pilots better visualize weather data.  It is not intended as a substitute for an official pre-flight weather briefing.

07:02:24 UTC

CYVL METAR
Colville Lake / Tommy Kochon Airport
Colville Lake, Canada
Current

1 hour ago

CYVL 210600Z AUTO 04004KT 350V090 9SM CLR 04/M01 A3013 RMK SLP221
Observed
May-21 @ 06:00 UTC
Wind
  • 040° at 4 KTS
Visibility
9 SM
Flight Rules
VFR
Cloud Levels
  • Clear skies
Temperature
C / 39°F
Dewpoint
-1°C / 30°F
Humidity
70%
Altimeter
30.13" Hg
Pressure
1020.32 hPa
Previous

2 hours ago

CYVL 210500Z AUTO 07006KT 030V150 9SM CLR 06/M00 A3011 RMK SLP212
Observed
May-21 @ 05:00 UTC
Wind
  • 070° at 6 KTS
Visibility
9 SM
Flight Rules
VFR
Cloud Levels
  • Clear skies
Temperature
C / 43°F
Dewpoint
C / 32°F
Humidity
66%
Altimeter
30.11" Hg
Pressure
1019.62 hPa
Previous

3 hours ago

CYVL 210400Z AUTO 09012KT 9SM CLR 08/01 A3008 RMK SLP203
Observed
May-21 @ 04:00 UTC
Wind
  • 090° at 12 KTS
Visibility
9 SM
Flight Rules
VFR
Cloud Levels
  • Clear skies
Temperature
C / 46°F
Dewpoint
C / 34°F
Humidity
62%
Altimeter
30.08" Hg
Pressure
1018.62 hPa